sensor_id;sensor_type;location;lat;lon;timestamp;temperature;humidity
18147;DHT22;9199;48.832;9.182;2023-11-19T00:02:16;8.30;99.90
18147;DHT22;9199;48.832;9.182;2023-11-19T00:04:44;8.40;99.90
18147;DHT22;9199;48.832;9.182;2023-11-19T00:07:10;8.40;99.90
18147;DHT22;9199;48.832;9.182;2023-11-19T00:09:39;8.40;99.90
18147;DHT22;9199;48.832;9.182;2023-11-19T00:12:06;8.40;99.90
18147;DHT22;9199;48.832;9.182;2023-11-19T00:14:35;8.40;99.90
18147;DHT22;9199;48.832;9.182;2023-11-19T00:17:02;8.50;99.90
18147;DHT22;9199;48.832;9.182;2023-11-19T00:19:30;8.60;99.90
18147;DHT22;9199;48.832;9.182;2023-11-19T00:21:56;8.60;99.90
18147;DHT22;9199;48.832;9.182;2023-11-19T00:24:28;8.60;99.90
18147;DHT22;9199;48.832;9.182;2023-11-19T00:26:54;8.70;99.90
18147;DHT22;9199;48.832;9.182;2023-11-19T00:29:21;8.70;99.90
18147;DHT22;9199;48.832;9.182;2023-11-19T00:31:50;8.80;99.90
18147;DHT22;9199;48.832;9.182;2023-11-19T00:34:16;8.90;99.90
18147;DHT22;9199;48.832;9.182;2023-11-19T00:36:47;8.90;99.90
18147;DHT22;9199;48.832;9.182;2023-11-19T00:39:13;9.00;99.90
18147;DHT22;9199;48.832;9.182;2023-11-19T00:41:41;9.00;99.90
18147;DHT22;9199;48.832;9.182;2023-11-19T00:44:08;9.00;99.90
18147;DHT22;9199;48.832;9.182;2023-11-19T00:46:34;9.00;99.90
18147;DHT22;9199;48.832;9.182;2023-11-19T00:49:04;9.00;99.90
18147;DHT22;9199;48.832;9.182;2023-11-19T00:51:30;9.00;99.90
18147;DHT22;9199;48.832;9.182;2023-11-19T00:53:57;9.10;99.90
18147;DHT22;9199;48.832;9.182;2023-11-19T00:56:24;9.10;99.90
18147;DHT22;9199;48.832;9.182;2023-11-19T00:58:51;9.20;99.90
18147;DHT22;9199;48.832;9.182;2023-11-19T01:01:17;9.20;99.90
18147;DHT22;9199;48.832;9.182;2023-11-19T01:03:44;9.20;99.90
18147;DHT22;9199;48.832;9.182;2023-11-19T01:06:12;9.30;99.90
18147;DHT22;9199;48.832;9.182;2023-11-19T01:08:42;9.40;99.90
18147;DHT22;9199;48.832;9.182;2023-11-19T01:11:19;9.40;99.90
18147;DHT22;9199;48.832;9.182;2023-11-19T01:13:47;9.40;99.90
18147;DHT22;9199;48.832;9.182;2023-11-19T01:16:13;9.40;99.90
18147;DHT22;9199;48.832;9.182;2023-11-19T01:18:40;9.50;99.90
18147;DHT22;9199;48.832;9.182;2023-11-19T01:21:07;9.50;99.90
18147;DHT22;9199;48.832;9.182;2023-11-19T01:23:35;9.50;99.90
18147;DHT22;9199;48.832;9.182;2023-11-19T01:26:02;9.50;99.90
18147;DHT22;9199;48.832;9.182;2023-11-19T01:28:30;9.50;99.90
18147;DHT22;9199;48.832;9.182;2023-11-19T01:30:57;9.50;99.90
18147;DHT22;9199;48.832;9.182;2023-11-19T01:33:24;9.50;99.90
18147;DHT22;9199;48.832;9.182;2023-11-19T01:35:51;9.50;99.90
18147;DHT22;9199;48.832;9.182;2023-11-19T01:38:17;9.60;99.90
18147;DHT22;9199;48.832;9.182;2023-11-19T01:40:45;9.60;99.90
18147;DHT22;9199;48.832;9.182;2023-11-19T01:43:12;9.60;99.90
18147;DHT22;9199;48.832;9.182;2023-11-19T01:45:40;9.60;99.90
18147;DHT22;9199;48.832;9.182;2023-11-19T01:48:07;9.60;99.90
18147;DHT22;9199;48.832;9.182;2023-11-19T01:50:37;9.60;99.90
18147;DHT22;9199;48.832;9.182;2023-11-19T01:53:03;9.60;99.90
18147;DHT22;9199;48.832;9.182;2023-11-19T01:55:30;9.60;99.90
18147;DHT22;9199;48.832;9.182;2023-11-19T01:58:00;9.60;99.90
18147;DHT22;9199;48.832;9.182;2023-11-19T02:00:27;9.60;99.90
18147;DHT22;9199;48.832;9.182;2023-11-19T02:02:54;9.60;99.90
18147;DHT22;9199;48.832;9.182;2023-11-19T02:05:22;9.60;99.90
18147;DHT22;9199;48.832;9.182;2023-11-19T02:07:48;9.70;99.90
18147;DHT22;9199;48.832;9.182;2023-11-19T02:10:16;9.70;99.90
18147;DHT22;9199;48.832;9.182;2023-11-19T02:12:45;9.70;99.90
18147;DHT22;9199;48.832;9.182;2023-11-19T02:15:13;9.70;99.90
18147;DHT22;9199;48.832;9.182;2023-11-19T02:17:40;9.70;99.90
18147;DHT22;9199;48.832;9.182;2023-11-19T02:20:07;9.70;99.90
18147;DHT22;9199;48.832;9.182;2023-11-19T02:22:38;9.70;99.90
18147;DHT22;9199;48.832;9.182;2023-11-19T02:25:07;9.80;99.90
18147;DHT22;9199;48.832;9.182;2023-11-19T02:27:54;9.80;99.90
18147;DHT22;9199;48.832;9.182;2023-11-19T02:30:22;9.80;99.90
18147;DHT22;9199;48.832;9.182;2023-11-19T02:32:52;9.80;99.90
18147;DHT22;9199;48.832;9.182;2023-11-19T02:35:18;9.80;99.90
18147;DHT22;9199;48.832;9.182;2023-11-19T02:37:47;9.80;99.90
18147;DHT22;9199;48.832;9.182;2023-11-19T02:40:14;9.80;99.90
18147;DHT22;9199;48.832;9.182;2023-11-19T02:42:41;9.90;99.90
18147;DHT22;9199;48.832;9.182;2023-11-19T02:45:09;9.90;99.90
18147;DHT22;9199;48.832;9.182;2023-11-19T02:47:40;9.80;99.90
18147;DHT22;9199;48.832;9.182;2023-11-19T02:50:08;9.80;99.90
18147;DHT22;9199;48.832;9.182;2023-11-19T02:52:39;9.80;99.90
18147;DHT22;9199;48.832;9.182;2023-11-19T02:55:07;9.80;99.90
18147;DHT22;9199;48.832;9.182;2023-11-19T02:57:37;9.80;99.90
18147;DHT22;9199;48.832;9.182;2023-11-19T03:00:08;9.80;99.90
18147;DHT22;9199;48.832;9.182;2023-11-19T03:02:39;9.90;99.90
18147;DHT22;9199;48.832;9.182;2023-11-19T03:05:10;10.00;99.90
18147;DHT22;9199;48.832;9.182;2023-11-19T03:07:37;10.00;99.90
18147;DHT22;9199;48.832;9.182;2023-11-19T03:10:04;9.90;99.90
18147;DHT22;9199;48.832;9.182;2023-11-19T03:12:32;9.90;99.90
18147;DHT22;9199;48.832;9.182;2023-11-19T03:14:58;9.90;99.90
18147;DHT22;9199;48.832;9.182;2023-11-19T03:17:26;9.90;99.90
18147;DHT22;9199;48.832;9.182;2023-11-19T03:19:53;9.80;99.90
18147;DHT22;9199;48.832;9.182;2023-11-19T03:22:20;9.80;99.90
18147;DHT22;9199;48.832;9.182;2023-11-19T03:24:47;9.90;99.90
18147;DHT22;9199;48.832;9.182;2023-11-19T03:27:13;9.80;99.90
18147;DHT22;9199;48.832;9.182;2023-11-19T03:29:40;9.80;99.90
18147;DHT22;9199;48.832;9.182;2023-11-19T03:32:07;9.80;99.90
18147;DHT22;9199;48.832;9.182;2023-11-19T03:34:35;9.90;99.90
18147;DHT22;9199;48.832;9.182;2023-11-19T03:37:01;9.80;99.90
18147;DHT22;9199;48.832;9.182;2023-11-19T03:39:29;9.80;99.90
18147;DHT22;9199;48.832;9.182;2023-11-19T03:41:56;9.80;99.90
18147;DHT22;9199;48.832;9.182;2023-11-19T03:44:22;9.80;99.90
18147;DHT22;9199;48.832;9.182;2023-11-19T03:46:51;9.70;99.90
18147;DHT22;9199;48.832;9.182;2023-11-19T03:49:18;9.70;99.90
18147;DHT22;9199;48.832;9.182;2023-11-19T03:51:46;9.70;99.90
18147;DHT22;9199;48.832;9.182;2023-11-19T03:54:13;9.70;99.90
18147;DHT22;9199;48.832;9.182;2023-11-19T03:56:40;9.70;99.90
18147;DHT22;9199;48.832;9.182;2023-11-19T03:59:07;9.70;99.90
18147;DHT22;9199;48.832;9.182;2023-11-19T04:01:36;9.70;99.90
18147;DHT22;9199;48.832;9.182;2023-11-19T04:04:03;9.70;99.90
18147;DHT22;9199;48.832;9.182;2023-11-19T04:06:31;9.70;99.90
18147;DHT22;9199;48.832;9.182;2023-11-19T04:08:59;9.80;99.90
18147;DHT22;9199;48.832;9.182;2023-11-19T04:11:27;9.80;99.90
18147;DHT22;9199;48.832;9.182;2023-11-19T04:13:56;9.90;99.90
18147;DHT22;9199;48.832;9.182;2023-11-19T04:16:26;9.90;99.90
18147;DHT22;9199;48.832;9.182;2023-11-19T04:18:54;9.90;99.90
18147;DHT22;9199;48.832;9.182;2023-11-19T04:21:20;9.90;99.90
18147;DHT22;9199;48.832;9.182;2023-11-19T04:23:48;9.90;99.90
18147;DHT22;9199;48.832;9.182;2023-11-19T04:26:16;9.90;99.90
18147;DHT22;9199;48.832;9.182;2023-11-19T04:28:43;10.00;99.90
18147;DHT22;9199;48.832;9.182;2023-11-19T04:31:09;10.00;99.90
18147;DHT22;9199;48.832;9.182;2023-11-19T04:33:36;10.00;99.90
18147;DHT22;9199;48.832;9.182;2023-11-19T04:36:03;10.10;99.90
18147;DHT22;9199;48.832;9.182;2023-11-19T04:38:30;10.10;99.90
18147;DHT22;9199;48.832;9.182;2023-11-19T04:40:57;10.10;99.90
18147;DHT22;9199;48.832;9.182;2023-11-19T04:43:25;10.20;99.90
18147;DHT22;9199;48.832;9.182;2023-11-19T04:45:51;10.20;99.90
18147;DHT22;9199;48.832;9.182;2023-11-19T04:48:18;10.10;99.90
18147;DHT22;9199;48.832;9.182;2023-11-19T04:50:45;10.10;99.90
18147;DHT22;9199;48.832;9.182;2023-11-19T04:53:12;10.10;99.90
18147;DHT22;9199;48.832;9.182;2023-11-19T04:55:39;10.10;99.90
18147;DHT22;9199;48.832;9.182;2023-11-19T04:58:06;10.10;99.90
18147;DHT22;9199;48.832;9.182;2023-11-19T05:00:34;10.10;99.90
18147;DHT22;9199;48.832;9.182;2023-11-19T05:03:01;10.20;99.90
18147;DHT22;9199;48.832;9.182;2023-11-19T05:05:28;10.30;99.90
18147;DHT22;9199;48.832;9.182;2023-11-19T05:07:55;10.40;99.90
18147;DHT22;9199;48.832;9.182;2023-11-19T05:10:21;10.40;99.90
18147;DHT22;9199;48.832;9.182;2023-11-19T05:12:48;10.60;99.90
18147;DHT22;9199;48.832;9.182;2023-11-19T05:15:17;10.70;99.90
18147;DHT22;9199;48.832;9.182;2023-11-19T05:17:45;10.70;99.90
18147;DHT22;9199;48.832;9.182;2023-11-19T05:20:11;10.80;99.90
18147;DHT22;9199;48.832;9.182;2023-11-19T05:22:41;10.90;99.90
18147;DHT22;9199;48.832;9.182;2023-11-19T05:25:08;10.90;99.90
18147;DHT22;9199;48.832;9.182;2023-11-19T05:27:36;10.90;99.90
18147;DHT22;9199;48.832;9.182;2023-11-19T05:30:03;11.00;99.90
18147;DHT22;9199;48.832;9.182;2023-11-19T05:32:32;11.00;99.90
18147;DHT22;9199;48.832;9.182;2023-11-19T05:35:01;11.00;99.90
18147;DHT22;9199;48.832;9.182;2023-11-19T05:37:27;11.00;99.90
18147;DHT22;9199;48.832;9.182;2023-11-19T05:39:54;11.00;99.90
18147;DHT22;9199;48.832;9.182;2023-11-19T05:42:21;11.00;99.90
18147;DHT22;9199;48.832;9.182;2023-11-19T05:44:49;11.00;99.90
18147;DHT22;9199;48.832;9.182;2023-11-19T05:47:15;11.00;99.90
18147;DHT22;9199;48.832;9.182;2023-11-19T05:49:42;11.00;99.90
18147;DHT22;9199;48.832;9.182;2023-11-19T05:52:10;11.00;99.90
18147;DHT22;9199;48.832;9.182;2023-11-19T05:54:37;11.10;99.90
18147;DHT22;9199;48.832;9.182;2023-11-19T05:57:04;11.10;99.90
18147;DHT22;9199;48.832;9.182;2023-11-19T05:59:32;11.10;99.90
18147;DHT22;9199;48.832;9.182;2023-11-19T06:01:59;11.20;99.90
18147;DHT22;9199;48.832;9.182;2023-11-19T06:04:26;11.20;99.90
18147;DHT22;9199;48.832;9.182;2023-11-19T06:06:52;11.20;99.90
18147;DHT22;9199;48.832;9.182;2023-11-19T06:09:21;11.20;99.90
18147;DHT22;9199;48.832;9.182;2023-11-19T06:11:49;11.20;99.90
18147;DHT22;9199;48.832;9.182;2023-11-19T06:14:16;11.20;99.90
18147;DHT22;9199;48.832;9.182;2023-11-19T06:16:43;11.20;99.90
18147;DHT22;9199;48.832;9.182;2023-11-19T06:19:10;11.20;99.90
18147;DHT22;9199;48.832;9.182;2023-11-19T06:21:37;11.20;99.90
18147;DHT22;9199;48.832;9.182;2023-11-19T06:24:04;11.30;99.90
18147;DHT22;9199;48.832;9.182;2023-11-19T06:26:32;11.30;99.90
18147;DHT22;9199;48.832;9.182;2023-11-19T06:28:59;11.50;99.90
18147;DHT22;9199;48.832;9.182;2023-11-19T06:31:26;11.50;99.90
18147;DHT22;9199;48.832;9.182;2023-11-19T06:33:53;11.60;99.90
18147;DHT22;9199;48.832;9.182;2023-11-19T06:36:19;11.70;99.90
18147;DHT22;9199;48.832;9.182;2023-11-19T06:38:47;11.70;99.90
18147;DHT22;9199;48.832;9.182;2023-11-19T06:41:13;11.80;99.90
18147;DHT22;9199;48.832;9.182;2023-11-19T06:43:41;11.70;99.90
18147;DHT22;9199;48.832;9.182;2023-11-19T06:46:14;11.70;99.90
18147;DHT22;9199;48.832;9.182;2023-11-19T06:48:41;11.70;99.90
18147;DHT22;9199;48.832;9.182;2023-11-19T06:51:09;11.70;99.90
18147;DHT22;9199;48.832;9.182;2023-11-19T06:53:36;11.70;99.90
18147;DHT22;9199;48.832;9.182;2023-11-19T06:56:03;11.70;99.90
18147;DHT22;9199;48.832;9.182;2023-11-19T06:58:31;11.70;99.90
18147;DHT22;9199;48.832;9.182;2023-11-19T07:01:01;11.70;99.90
18147;DHT22;9199;48.832;9.182;2023-11-19T07:03:28;11.70;99.90
18147;DHT22;9199;48.832;9.182;2023-11-19T07:05:54;11.70;99.90
18147;DHT22;9199;48.832;9.182;2023-11-19T07:08:21;11.70;99.90
18147;DHT22;9199;48.832;9.182;2023-11-19T07:10:48;11.70;99.90
18147;DHT22;9199;48.832;9.182;2023-11-19T07:13:15;11.70;99.90
18147;DHT22;9199;48.832;9.182;2023-11-19T07:15:42;11.70;99.90
18147;DHT22;9199;48.832;9.182;2023-11-19T07:18:09;11.70;99.90
18147;DHT22;9199;48.832;9.182;2023-11-19T07:20:37;11.80;99.90
18147;DHT22;9199;48.832;9.182;2023-11-19T07:23:05;11.80;99.90
18147;DHT22;9199;48.832;9.182;2023-11-19T07:25:32;11.80;99.90
18147;DHT22;9199;48.832;9.182;2023-11-19T07:28:00;11.80;99.90
18147;DHT22;9199;48.832;9.182;2023-11-19T07:30:29;11.80;99.90
18147;DHT22;9199;48.832;9.182;2023-11-19T07:32:56;11.80;99.90
18147;DHT22;9199;48.832;9.182;2023-11-19T07:35:24;11.80;99.90
18147;DHT22;9199;48.832;9.182;2023-11-19T07:37:50;11.90;99.90
18147;DHT22;9199;48.832;9.182;2023-11-19T07:40:18;11.90;99.90
18147;DHT22;9199;48.832;9.182;2023-11-19T07:42:45;11.90;99.90
18147;DHT22;9199;48.832;9.182;2023-11-19T07:45:12;11.90;99.90
18147;DHT22;9199;48.832;9.182;2023-11-19T07:47:39;11.90;99.90
18147;DHT22;9199;48.832;9.182;2023-11-19T07:50:06;12.00;99.90
18147;DHT22;9199;48.832;9.182;2023-11-19T07:52:34;12.00;99.90
18147;DHT22;9199;48.832;9.182;2023-11-19T07:55:01;12.00;99.90
18147;DHT22;9199;48.832;9.182;2023-11-19T07:57:28;12.10;99.90
18147;DHT22;9199;48.832;9.182;2023-11-19T07:59:56;12.10;99.90
18147;DHT22;9199;48.832;9.182;2023-11-19T08:02:23;12.10;99.90
18147;DHT22;9199;48.832;9.182;2023-11-19T08:04:50;12.20;99.90
18147;DHT22;9199;48.832;9.182;2023-11-19T08:07:17;12.10;99.90
18147;DHT22;9199;48.832;9.182;2023-11-19T08:09:45;12.10;99.90
18147;DHT22;9199;48.832;9.182;2023-11-19T08:12:12;12.20;99.90
18147;DHT22;9199;48.832;9.182;2023-11-19T08:14:40;12.20;99.90
18147;DHT22;9199;48.832;9.182;2023-11-19T08:17:06;12.30;99.90
18147;DHT22;9199;48.832;9.182;2023-11-19T08:19:33;12.40;99.90
18147;DHT22;9199;48.832;9.182;2023-11-19T08:22:00;12.40;99.90
18147;DHT22;9199;48.832;9.182;2023-11-19T08:24:27;12.40;99.90
18147;DHT22;9199;48.832;9.182;2023-11-19T08:26:55;12.50;99.90
18147;DHT22;9199;48.832;9.182;2023-11-19T08:29:22;12.60;99.90
18147;DHT22;9199;48.832;9.182;2023-11-19T08:31:49;12.80;99.90
18147;DHT22;9199;48.832;9.182;2023-11-19T08:34:15;13.10;99.90
18147;DHT22;9199;48.832;9.182;2023-11-19T08:36:42;13.20;99.90
18147;DHT22;9199;48.832;9.182;2023-11-19T08:39:09;13.20;99.90
18147;DHT22;9199;48.832;9.182;2023-11-19T08:41:36;13.20;99.90
18147;DHT22;9199;48.832;9.182;2023-11-19T08:44:06;13.20;99.90
18147;DHT22;9199;48.832;9.182;2023-11-19T08:46:33;13.50;99.90
18147;DHT22;9199;48.832;9.182;2023-11-19T08:48:59;13.60;99.90
18147;DHT22;9199;48.832;9.182;2023-11-19T08:51:26;13.50;99.90
18147;DHT22;9199;48.832;9.182;2023-11-19T08:53:53;13.50;99.90
18147;DHT22;9199;48.832;9.182;2023-11-19T08:56:21;13.50;99.90
18147;DHT22;9199;48.832;9.182;2023-11-19T08:58:47;13.70;99.90
18147;DHT22;9199;48.832;9.182;2023-11-19T09:01:16;13.70;99.90
18147;DHT22;9199;48.832;9.182;2023-11-19T09:03:42;13.80;99.90
18147;DHT22;9199;48.832;9.182;2023-11-19T09:06:09;13.80;99.90
18147;DHT22;9199;48.832;9.182;2023-11-19T09:08:36;13.90;99.90
18147;DHT22;9199;48.832;9.182;2023-11-19T09:11:07;14.20;99.90
18147;DHT22;9199;48.832;9.182;2023-11-19T09:13:34;14.60;99.90
18147;DHT22;9199;48.832;9.182;2023-11-19T09:16:01;15.00;99.90
18147;DHT22;9199;48.832;9.182;2023-11-19T09:18:30;15.70;99.90
18147;DHT22;9199;48.832;9.182;2023-11-19T09:20:57;15.90;99.90
18147;DHT22;9199;48.832;9.182;2023-11-19T09:23:24;15.70;99.90
18147;DHT22;9199;48.832;9.182;2023-11-19T09:25:53;15.40;99.90
18147;DHT22;9199;48.832;9.182;2023-11-19T09:28:20;15.10;99.90
18147;DHT22;9199;48.832;9.182;2023-11-19T09:30:47;14.80;99.90
18147;DHT22;9199;48.832;9.182;2023-11-19T09:33:13;14.70;99.90
18147;DHT22;9199;48.832;9.182;2023-11-19T09:35:42;14.60;99.90
18147;DHT22;9199;48.832;9.182;2023-11-19T09:38:08;14.50;99.90
18147;DHT22;9199;48.832;9.182;2023-11-19T09:40:35;14.40;99.90
18147;DHT22;9199;48.832;9.182;2023-11-19T09:43:04;14.30;99.90
18147;DHT22;9199;48.832;9.182;2023-11-19T09:45:32;14.30;99.90
18147;DHT22;9199;48.832;9.182;2023-11-19T09:48:08;14.40;99.90
18147;DHT22;9199;48.832;9.182;2023-11-19T09:50:35;14.70;99.90
18147;DHT22;9199;48.832;9.182;2023-11-19T09:53:04;15.30;99.90
18147;DHT22;9199;48.832;9.182;2023-11-19T09:55:31;15.60;99.90
18147;DHT22;9199;48.832;9.182;2023-11-19T09:57:58;16.00;99.90
18147;DHT22;9199;48.832;9.182;2023-11-19T10:00:27;16.40;99.90
18147;DHT22;9199;48.832;9.182;2023-11-19T10:02:54;16.60;99.90
18147;DHT22;9199;48.832;9.182;2023-11-19T10:05:24;16.60;99.90
18147;DHT22;9199;48.832;9.182;2023-11-19T10:07:51;16.50;99.90
18147;DHT22;9199;48.832;9.182;2023-11-19T10:10:20;16.30;99.90
18147;DHT22;9199;48.832;9.182;2023-11-19T10:12:46;16.10;99.90
18147;DHT22;9199;48.832;9.182;2023-11-19T10:15:19;15.90;99.90
18147;DHT22;9199;48.832;9.182;2023-11-19T10:17:46;16.00;99.90
18147;DHT22;9199;48.832;9.182;2023-11-19T10:20:13;16.10;99.90
18147;DHT22;9199;48.832;9.182;2023-11-19T10:22:40;16.10;99.90
18147;DHT22;9199;48.832;9.182;2023-11-19T10:25:23;16.20;99.90
18147;DHT22;9199;48.832;9.182;2023-11-19T10:27:50;16.40;99.90
18147;DHT22;9199;48.832;9.182;2023-11-19T10:30:18;16.60;99.90
18147;DHT22;9199;48.832;9.182;2023-11-19T10:32:45;17.00;99.90
18147;DHT22;9199;48.832;9.182;2023-11-19T10:35:11;17.40;99.90
18147;DHT22;9199;48.832;9.182;2023-11-19T10:37:39;17.40;99.90
18147;DHT22;9199;48.832;9.182;2023-11-19T10:40:07;17.10;99.90
18147;DHT22;9199;48.832;9.182;2023-11-19T10:42:37;16.80;99.90
18147;DHT22;9199;48.832;9.182;2023-11-19T10:45:04;16.70;99.90
18147;DHT22;9199;48.832;9.182;2023-11-19T10:47:32;16.80;99.90
18147;DHT22;9199;48.832;9.182;2023-11-19T10:50:01;17.70;99.90
18147;DHT22;9199;48.832;9.182;2023-11-19T10:52:28;18.00;99.90
18147;DHT22;9199;48.832;9.182;2023-11-19T10:54:57;18.30;99.90
18147;DHT22;9199;48.832;9.182;2023-11-19T10:57:29;18.30;99.90
18147;DHT22;9199;48.832;9.182;2023-11-19T11:00:01;18.30;99.90
18147;DHT22;9199;48.832;9.182;2023-11-19T11:02:40;18.20;99.90
18147;DHT22;9199;48.832;9.182;2023-11-19T11:05:07;18.10;99.90
18147;DHT22;9199;48.832;9.182;2023-11-19T11:07:35;17.90;99.90
18147;DHT22;9199;48.832;9.182;2023-11-19T11:10:03;17.50;99.90
18147;DHT22;9199;48.832;9.182;2023-11-19T11:12:35;17.20;99.90
18147;DHT22;9199;48.832;9.182;2023-11-19T11:15:06;17.00;99.90
18147;DHT22;9199;48.832;9.182;2023-11-19T11:17:34;16.80;99.90
18147;DHT22;9199;48.832;9.182;2023-11-19T11:20:01;16.60;99.90
18147;DHT22;9199;48.832;9.182;2023-11-19T11:22:29;16.40;99.90
18147;DHT22;9199;48.832;9.182;2023-11-19T11:25:19;16.20;99.90
18147;DHT22;9199;48.832;9.182;2023-11-19T11:28:00;16.10;99.90
18147;DHT22;9199;48.832;9.182;2023-11-19T11:30:43;16.10;99.90
18147;DHT22;9199;48.832;9.182;2023-11-19T11:33:25;15.90;99.90
18147;DHT22;9199;48.832;9.182;2023-11-19T11:36:04;15.90;99.90
18147;DHT22;9199;48.832;9.182;2023-11-19T11:38:36;15.90;99.90
18147;DHT22;9199;48.832;9.182;2023-11-19T11:41:20;16.00;99.90
18147;DHT22;9199;48.832;9.182;2023-11-19T11:43:49;16.40;99.90
18147;DHT22;9199;48.832;9.182;2023-11-19T11:49:28;16.90;99.90
18147;DHT22;9199;48.832;9.182;2023-11-19T11:52:00;17.20;99.90
18147;DHT22;9199;48.832;9.182;2023-11-19T11:54:29;16.90;99.90
18147;DHT22;9199;48.832;9.182;2023-11-19T11:57:04;16.50;99.90
18147;DHT22;9199;48.832;9.182;2023-11-19T11:59:43;16.30;99.90
18147;DHT22;9199;48.832;9.182;2023-11-19T12:02:11;16.20;99.90
18147;DHT22;9199;48.832;9.182;2023-11-19T12:04:40;16.40;99.90
18147;DHT22;9199;48.832;9.182;2023-11-19T12:07:11;16.90;99.90
18147;DHT22;9199;48.832;9.182;2023-11-19T12:09:40;17.70;99.90
18147;DHT22;9199;48.832;9.182;2023-11-19T12:12:12;18.20;99.90
18147;DHT22;9199;48.832;9.182;2023-11-19T12:15:01;18.50;99.90
18147;DHT22;9199;48.832;9.182;2023-11-19T12:17:40;19.20;99.90
18147;DHT22;9199;48.832;9.182;2023-11-19T12:20:11;20.00;99.90
18147;DHT22;9199;48.832;9.182;2023-11-19T12:22:38;21.20;99.90
18147;DHT22;9199;48.832;9.182;2023-11-19T12:25:06;22.00;99.90
18147;DHT22;9199;48.832;9.182;2023-11-19T12:27:33;22.50;99.60
18147;DHT22;9199;48.832;9.182;2023-11-19T12:30:00;22.80;98.00
18147;DHT22;9199;48.832;9.182;2023-11-19T12:32:37;22.20;98.10
18147;DHT22;9199;48.832;9.182;2023-11-19T12:35:05;21.50;99.40
18147;DHT22;9199;48.832;9.182;2023-11-19T12:37:33;21.30;98.40
18147;DHT22;9199;48.832;9.182;2023-11-19T12:40:01;20.40;98.00
18147;DHT22;9199;48.832;9.182;2023-11-19T12:42:37;20.10;98.30
18147;DHT22;9199;48.832;9.182;2023-11-19T12:45:05;20.40;97.40
18147;DHT22;9199;48.832;9.182;2023-11-19T12:47:32;19.90;97.70
18147;DHT22;9199;48.832;9.182;2023-11-19T12:49:58;19.60;98.20
18147;DHT22;9199;48.832;9.182;2023-11-19T12:52:25;19.30;98.70
18147;DHT22;9199;48.832;9.182;2023-11-19T12:54:54;19.10;98.80
18147;DHT22;9199;48.832;9.182;2023-11-19T12:57:20;19.30;98.80
18147;DHT22;9199;48.832;9.182;2023-11-19T13:00:06;19.60;98.40
18147;DHT22;9199;48.832;9.182;2023-11-19T13:02:45;20.10;97.90
18147;DHT22;9199;48.832;9.182;2023-11-19T13:05:27;20.10;96.60
18147;DHT22;9199;48.832;9.182;2023-11-19T13:08:01;19.70;97.00
18147;DHT22;9199;48.832;9.182;2023-11-19T13:10:31;19.50;97.50
18147;DHT22;9199;48.832;9.182;2023-11-19T13:13:03;19.70;97.40
18147;DHT22;9199;48.832;9.182;2023-11-19T13:15:30;20.00;97.50
18147;DHT22;9199;48.832;9.182;2023-11-19T13:17:57;19.80;97.30
18147;DHT22;9199;48.832;9.182;2023-11-19T13:20:24;19.10;97.70
18147;DHT22;9199;48.832;9.182;2023-11-19T13:22:55;19.00;98.50
18147;DHT22;9199;48.832;9.182;2023-11-19T13:25:22;19.20;98.00
18147;DHT22;9199;48.832;9.182;2023-11-19T13:27:50;18.90;97.70
18147;DHT22;9199;48.832;9.182;2023-11-19T13:30:17;18.40;97.40
18147;DHT22;9199;48.832;9.182;2023-11-19T13:32:44;17.80;98.50
18147;DHT22;9199;48.832;9.182;2023-11-19T13:35:11;17.40;99.10
18147;DHT22;9199;48.832;9.182;2023-11-19T13:37:38;17.40;98.80
18147;DHT22;9199;48.832;9.182;2023-11-19T13:40:06;17.30;99.20
18147;DHT22;9199;48.832;9.182;2023-11-19T13:42:35;17.30;99.30
18147;DHT22;9199;48.832;9.182;2023-11-19T13:45:04;17.20;99.60
18147;DHT22;9199;48.832;9.182;2023-11-19T13:47:34;17.10;99.90
18147;DHT22;9199;48.832;9.182;2023-11-19T13:50:00;16.90;99.90
18147;DHT22;9199;48.832;9.182;2023-11-19T13:52:27;17.20;99.90
18147;DHT22;9199;48.832;9.182;2023-11-19T13:54:54;17.30;99.90
18147;DHT22;9199;48.832;9.182;2023-11-19T13:57:21;17.40;99.90
18147;DHT22;9199;48.832;9.182;2023-11-19T13:59:47;17.30;99.90
18147;DHT22;9199;48.832;9.182;2023-11-19T14:02:16;17.40;99.90
18147;DHT22;9199;48.832;9.182;2023-11-19T14:04:43;17.10;99.90
18147;DHT22;9199;48.832;9.182;2023-11-19T14:07:09;16.90;99.80
18147;DHT22;9199;48.832;9.182;2023-11-19T14:09:36;16.70;99.10
18147;DHT22;9199;48.832;9.182;2023-11-19T14:12:03;16.50;98.40
18147;DHT22;9199;48.832;9.182;2023-11-19T14:14:30;16.40;98.60
18147;DHT22;9199;48.832;9.182;2023-11-19T14:16:57;16.30;98.70
18147;DHT22;9199;48.832;9.182;2023-11-19T14:19:25;16.10;98.80
18147;DHT22;9199;48.832;9.182;2023-11-19T14:21:52;16.00;99.30
18147;DHT22;9199;48.832;9.182;2023-11-19T14:24:19;16.00;99.30
18147;DHT22;9199;48.832;9.182;2023-11-19T14:26:46;15.80;99.10
18147;DHT22;9199;48.832;9.182;2023-11-19T14:29:14;15.80;99.40
18147;DHT22;9199;48.832;9.182;2023-11-19T14:31:41;15.70;98.60
18147;DHT22;9199;48.832;9.182;2023-11-19T14:34:07;15.60;98.60
18147;DHT22;9199;48.832;9.182;2023-11-19T14:36:35;15.60;99.10
18147;DHT22;9199;48.832;9.182;2023-11-19T14:39:02;15.50;99.20
18147;DHT22;9199;48.832;9.182;2023-11-19T14:41:29;15.40;99.60
18147;DHT22;9199;48.832;9.182;2023-11-19T14:43:56;15.40;99.90
18147;DHT22;9199;48.832;9.182;2023-11-19T14:46:23;15.30;99.90
18147;DHT22;9199;48.832;9.182;2023-11-19T14:48:49;15.30;99.90
18147;DHT22;9199;48.832;9.182;2023-11-19T14:51:17;15.20;99.90
18147;DHT22;9199;48.832;9.182;2023-11-19T14:53:45;15.20;99.90
18147;DHT22;9199;48.832;9.182;2023-11-19T14:56:12;15.10;99.90
18147;DHT22;9199;48.832;9.182;2023-11-19T14:58:39;15.00;99.90
18147;DHT22;9199;48.832;9.182;2023-11-19T15:01:06;15.00;99.90
18147;DHT22;9199;48.832;9.182;2023-11-19T15:03:33;14.90;99.90
18147;DHT22;9199;48.832;9.182;2023-11-19T15:06:00;14.90;99.90
18147;DHT22;9199;48.832;9.182;2023-11-19T15:08:27;14.90;99.90
18147;DHT22;9199;48.832;9.182;2023-11-19T15:10:57;14.90;99.90
18147;DHT22;9199;48.832;9.182;2023-11-19T15:13:24;14.90;99.90
18147;DHT22;9199;48.832;9.182;2023-11-19T15:15:50;14.80;99.90
18147;DHT22;9199;48.832;9.182;2023-11-19T15:18:18;14.90;99.90
18147;DHT22;9199;48.832;9.182;2023-11-19T15:20:46;14.80;99.90
18147;DHT22;9199;48.832;9.182;2023-11-19T15:23:13;14.70;99.90
18147;DHT22;9199;48.832;9.182;2023-11-19T15:25:41;14.70;99.90
18147;DHT22;9199;48.832;9.182;2023-11-19T15:28:09;14.60;99.90
18147;DHT22;9199;48.832;9.182;2023-11-19T15:30:36;14.60;99.90
18147;DHT22;9199;48.832;9.182;2023-11-19T15:33:03;14.50;99.90
18147;DHT22;9199;48.832;9.182;2023-11-19T15:35:29;14.50;99.90
18147;DHT22;9199;48.832;9.182;2023-11-19T15:37:56;14.50;99.90
18147;DHT22;9199;48.832;9.182;2023-11-19T15:40:23;14.40;99.90
18147;DHT22;9199;48.832;9.182;2023-11-19T15:42:49;14.30;99.90
18147;DHT22;9199;48.832;9.182;2023-11-19T15:45:19;14.20;99.90
18147;DHT22;9199;48.832;9.182;2023-11-19T15:47:46;14.20;99.90
18147;DHT22;9199;48.832;9.182;2023-11-19T15:50:13;14.10;99.90
18147;DHT22;9199;48.832;9.182;2023-11-19T15:52:40;14.10;99.90
18147;DHT22;9199;48.832;9.182;2023-11-19T15:55:09;14.00;99.90
18147;DHT22;9199;48.832;9.182;2023-11-19T15:57:37;13.90;99.90
18147;DHT22;9199;48.832;9.182;2023-11-19T16:00:05;13.90;99.90